Time;durP1;ratioP1;P1;durP2;ratioP2;P2;SDS_P1;SDS_P2;PMS_P1;PMS_P2;Temp;Humidity;BMP_temperature;BMP_pressure;BME280_temperature;BME280_humidity;BME280_pressure;Samples;Min_cycle;Max_cycle;Signal;HPM_P1;HPM_P2
2023/09/29 00:01:36;;;;;;;7.50;6.80;;;;;;;17.50;100.00;101201.94;6161771;23;20019;-73
2023/09/29 00:04:04;;;;;;;7.25;6.55;;;;;;;17.48;100.00;101206.50;6143472;23;20029;-73
2023/09/29 00:06:34;;;;;;;7.35;6.75;;;;;;;17.45;100.00;101220.84;6166317;23;20090;-73
2023/09/29 00:09:02;;;;;;;7.00;6.47;;;;;;;17.08;100.00;101156.38;6133639;23;20613;-73
2023/09/29 00:11:31;;;;;;;6.70;6.10;;;;;;;17.43;100.00;101204.19;6133390;23;20037;-74
2023/09/29 00:13:58;;;;;;;7.03;6.43;;;;;;;17.43;100.00;101211.31;6137154;23;20518;-73
2023/09/29 00:16:25;;;;;;;7.57;6.95;;;;;;;17.30;100.00;101188.34;6133458;23;20062;-73
2023/09/29 00:18:52;;;;;;;7.15;6.47;;;;;;;17.33;100.00;101204.00;6138946;23;20038;-73
2023/09/29 00:21:19;;;;;;;7.32;6.68;;;;;;;17.37;100.00;101199.34;6143902;23;20133;-74
2023/09/29 00:23:45;;;;;;;7.13;6.63;;;;;;;17.12;100.00;101163.16;6164183;23;20158;-73
2023/09/29 00:26:12;;;;;;;7.03;6.43;;;;;;;17.25;100.00;101193.09;6119362;23;20528;-73
2023/09/29 00:28:39;;;;;;;7.85;7.05;;;;;;;17.19;100.00;101180.28;6134153;23;20172;-73
2023/09/29 00:31:06;;;;;;;6.97;6.28;;;;;;;17.15;100.00;101174.34;6145494;23;20032;-73
2023/09/29 00:33:33;;;;;;;7.47;6.78;;;;;;;17.30;100.00;101203.41;6133419;23;20584;-73
2023/09/29 00:35:59;;;;;;;12.50;7.30;;;;;;;17.08;100.00;101175.78;6163762;23;20019;-73
2023/09/29 00:38:26;;;;;;;7.25;6.65;;;;;;;17.07;100.00;101174.06;6132389;23;20258;-73
2023/09/29 00:40:53;;;;;;;9.25;6.80;;;;;;;17.24;100.00;101187.91;6131753;23;20404;-74
2023/09/29 00:43:19;;;;;;;7.05;6.47;;;;;;;17.21;100.00;101182.84;6166325;23;20537;-73
2023/09/29 00:45:48;;;;;;;6.78;6.30;;;;;;;17.13;100.00;101164.81;6134081;23;20028;-74
2023/09/29 00:48:15;;;;;;;7.28;6.57;;;;;;;17.38;100.00;101197.53;6165865;23;20027;-73
2023/09/29 00:50:43;;;;;;;7.20;6.57;;;;;;;16.90;100.00;101116.13;6135674;23;20110;-72
2023/09/29 00:53:13;;;;;;;7.93;7.22;;;;;;;17.41;100.00;101184.03;6169002;23;20640;-73
2023/09/29 00:55:42;;;;;;;7.38;6.57;;;;;;;17.28;100.00;101158.41;6137313;23;20060;-73
2023/09/29 00:58:12;;;;;;;7.38;6.88;;;;;;;17.32;100.00;101167.84;6139002;23;20036;-73
2023/09/29 01:00:41;;;;;;;7.78;7.10;;;;;;;16.78;100.00;101066.59;6142938;23;20037;-74
2023/09/29 01:03:10;;;;;;;8.20;7.03;;;;;;;17.38;100.00;101168.34;6169629;23;20036;-73
2023/09/29 01:05:42;;;;;;;7.10;6.60;;;;;;;17.35;100.00;101158.81;6173211;23;20411;-73
2023/09/29 01:08:19;;;;;;;8.07;7.27;;;;;;;17.08;100.00;101121.91;6136957;23;20024;-73
2023/09/29 01:10:46;;;;;;;7.60;6.88;;;;;;;17.21;100.00;101140.41;6171603;23;20035;-73
2023/09/29 01:13:13;;;;;;;7.85;7.10;;;;;;;16.99;100.00;101104.00;6140615;23;20043;-73
2023/09/29 01:15:39;;;;;;;7.38;6.78;;;;;;;17.24;100.00;101135.72;6146723;23;20095;-73
2023/09/29 01:18:07;;;;;;;7.68;6.78;;;;;;;16.80;100.00;101059.38;6166194;23;20075;-74
2023/09/29 01:20:37;;;;;;;7.40;6.90;;;;;;;16.72;100.00;101047.53;6168715;23;20068;-73
2023/09/29 01:23:04;;;;;;;7.20;6.60;;;;;;;17.21;100.00;101132.44;6167029;23;20021;-73
2023/09/29 01:25:30;;;;;;;8.73;6.55;;;;;;;16.83;100.00;101072.44;6142267;23;20077;-73
2023/09/29 01:27:58;;;;;;;7.07;6.57;;;;;;;17.22;100.00;101147.38;6125881;23;20076;-73
2023/09/29 01:30:27;;;;;;;7.28;6.75;;;;;;;16.86;100.00;101093.44;6166194;23;20036;-73
2023/09/29 01:32:59;;;;;;;7.28;6.78;;;;;;;16.86;100.00;101088.16;6137413;23;20021;-73
2023/09/29 01:35:27;;;;;;;10.25;6.90;;;;;;;17.20;100.00;101151.94;6169087;23;20103;-73
2023/09/29 01:37:56;;;;;;;7.03;6.35;;;;;;;17.19;100.00;101147.63;6169889;23;20052;-73
2023/09/29 01:40:23;;;;;;;7.45;6.90;;;;;;;17.02;100.00;101133.78;6139949;23;20562;-73
2023/09/29 01:42:51;;;;;;;7.18;6.68;;;;;;;16.83;100.00;101094.50;6150428;23;20365;-73
2023/09/29 01:45:18;;;;;;;7.40;6.68;;;;;;;16.71;100.00;101080.28;6140671;23;20080;-73
2023/09/29 01:47:48;;;;;;;7.53;6.82;;;;;;;17.09;100.00;101144.78;6168073;23;20017;-73
2023/09/29 01:50:20;;;;;;;7.60;7.10;;;;;;;17.03;100.00;101130.16;6136983;23;20085;-74
2023/09/29 01:52:48;;;;;;;7.25;6.55;;;;;;;17.10;100.00;101155.28;6163494;23;20028;-73
2023/09/29 01:55:16;;;;;;;9.73;6.45;;;;;;;17.17;100.00;101157.50;6139217;23;20082;-73
2023/09/29 01:57:43;;;;;;;6.57;6.18;;;;;;;17.11;100.00;101149.00;6139881;23;20515;-73
2023/09/29 02:00:29;;;;;;;7.15;6.55;;;;;;;17.06;100.00;101127.31;6148962;23;20158;-73
2023/09/29 02:02:58;;;;;;;7.25;6.75;;;;;;;17.04;100.00;101120.41;6112983;23;20021;-74
2023/09/29 02:05:24;;;;;;;7.28;6.68;;;;;;;16.91;100.00;101101.91;6137943;23;20039;-74
2023/09/29 02:07:52;;;;;;;7.30;6.78;;;;;;;16.84;100.00;101096.19;6164358;23;20024;-74
2023/09/29 02:10:20;;;;;;;7.18;6.68;;;;;;;16.62;100.00;101073.00;6148898;23;20032;-73
2023/09/29 02:12:53;;;;;;;7.25;6.75;;;;;;;17.04;100.00;101147.78;6163670;23;20020;-74
2023/09/29 02:15:19;;;;;;;7.40;6.78;;;;;;;16.77;100.00;101116.09;6144386;23;20054;-73
2023/09/29 02:17:49;;;;;;;7.13;6.53;;;;;;;17.02;100.00;101155.00;6166658;23;20092;-72
2023/09/29 02:20:18;;;;;;;7.22;6.72;;;;;;;16.91;100.00;101149.63;6138795;23;20115;-73
2023/09/29 02:22:45;;;;;;;7.20;6.70;;;;;;;16.49;100.00;101057.13;6164361;23;20089;-74
2023/09/29 02:25:16;;;;;;;6.85;6.38;;;;;;;17.05;100.00;101138.84;6162673;23;20028;-74
2023/09/29 02:27:43;;;;;;;7.32;6.78;;;;;;;16.89;100.00;101122.38;6138060;23;20526;-73
2023/09/29 02:30:11;;;;;;;6.57;6.03;;;;;;;16.67;100.00;101077.97;6167764;23;20017;-73
2023/09/29 02:32:40;;;;;;;7.55;6.88;;;;;;;17.00;100.00;101125.09;6137037;23;20345;-73
2023/09/29 02:35:07;;;;;;;6.95;6.35;;;;;;;16.73;100.00;101094.28;6167935;23;20024;-73
2023/09/29 02:37:34;;;;;;;7.30;6.65;;;;;;;17.05;100.00;101143.31;6132502;23;20017;-73
2023/09/29 02:40:04;;;;;;;7.35;6.85;;;;;;;17.04;100.00;101145.13;6169185;23;20521;-73
2023/09/29 02:42:31;;;;;;;7.65;6.93;;;;;;;16.91;100.00;101117.81;6129434;23;20044;-73
2023/09/29 02:44:57;;;;;;;7.03;6.53;;;;;;;17.06;100.00;101148.53;6148561;23;20032;-73
2023/09/29 02:47:24;;;;;;;7.38;6.78;;;;;;;16.83;100.00;101120.16;6138059;23;20521;-73
2023/09/29 02:49:51;;;;;;;7.20;6.70;;;;;;;17.07;100.00;101154.66;6140445;23;20056;-74
2023/09/29 02:52:17;;;;;;;7.72;7.03;;;;;;;17.06;100.00;101142.34;6138521;23;20340;-75
2023/09/29 02:54:44;;;;;;;6.78;6.28;;;;;;;16.96;100.00;101128.94;6163567;23;20020;-74
2023/09/29 02:57:10;;;;;;;7.05;6.57;;;;;;;17.05;100.00;101140.66;6165547;23;20092;-73
2023/09/29 02:59:37;;;;;;;7.82;7.03;;;;;;;16.83;100.00;101131.59;6147588;23;20038;-73
2023/09/29 03:02:05;;;;;;;7.63;6.95;;;;;;;16.92;100.00;101141.56;6139045;23;20032;-73
2023/09/29 03:04:32;;;;;;;9.30;7.85;;;;;;;16.74;100.00;101111.88;6136734;23;20017;-74
2023/09/29 03:06:59;;;;;;;10.55;6.70;;;;;;;16.85;100.00;101134.16;6135292;23;20060;-74
2023/09/29 03:09:26;;;;;;;7.80;6.90;;;;;;;15.92;100.00;100989.66;6167983;23;20020;-73
2023/09/29 03:11:53;;;;;;;7.88;7.03;;;;;;;16.40;100.00;101070.19;6165911;23;20415;-73
2023/09/29 03:14:20;;;;;;;7.15;6.65;;;;;;;16.74;100.00;101122.47;6111767;23;20070;-74
2023/09/29 03:16:47;;;;;;;7.07;6.47;;;;;;;16.72;100.00;101127.03;6163009;23;20105;-74
2023/09/29 03:19:13;;;;;;;7.10;6.53;;;;;;;16.74;100.00;101130.44;6138485;23;20025;-74
2023/09/29 03:21:40;;;;;;;8.30;7.50;;;;;;;16.71;100.00;101129.81;6140437;23;20388;-73
2023/09/29 03:24:08;;;;;;;7.18;6.57;;;;;;;16.20;100.00;101058.38;6145272;23;20544;-73
2023/09/29 03:26:35;;;;;;;7.25;6.75;;;;;;;16.59;100.00;101123.56;6165603;23;20575;-73
2023/09/29 03:29:01;;;;;;;7.50;7.00;;;;;;;16.20;100.00;101053.91;6135934;23;20024;-74
2023/09/29 03:31:28;;;;;;;7.05;6.55;;;;;;;16.50;100.00;101106.53;6117323;23;20024;-74
2023/09/29 03:33:56;;;;;;;6.82;6.43;;;;;;;16.59;100.00;101107.66;6138999;23;20177;-75
2023/09/29 03:36:23;;;;;;;7.32;6.78;;;;;;;16.55;100.00;101101.72;6169229;23;20052;-74
2023/09/29 03:38:50;;;;;;;7.57;6.97;;;;;;;16.84;100.00;101135.09;6136487;23;20422;-73
2023/09/29 03:41:16;;;;;;;7.63;6.93;;;;;;;16.85;100.00;101135.00;6117105;23;20212;-73
2023/09/29 03:43:42;;;;;;;7.47;6.82;;;;;;;16.85;100.00;101137.63;6161100;23;20175;-74
2023/09/29 03:46:19;;;;;;;7.47;6.75;;;;;;;16.84;100.00;101124.50;6143237;23;20562;-74
2023/09/29 03:48:47;;;;;;;7.25;6.75;;;;;;;16.43;100.00;101062.88;6132705;23;20208;-74
2023/09/29 03:51:21;;;;;;;7.97;7.00;;;;;;;16.73;100.00;101119.94;6131161;23;20105;-74
2023/09/29 03:53:55;;;;;;;7.35;6.75;;;;;;;16.71;100.00;101095.34;6164509;23;20013;-73
2023/09/29 03:56:25;;;;;;;10.30;6.68;;;;;;;16.50;100.00;101058.84;6141395;23;20029;-74
2023/09/29 03:58:55;;;;;;;7.30;6.60;;;;;;;16.84;100.00;101111.22;6167410;23;20103;-74
2023/09/29 04:01:22;;;;;;;7.20;6.57;;;;;;;16.51;100.00;101051.72;6113322;23;20040;-74
2023/09/29 04:03:49;;;;;;;7.07;6.55;;;;;;;16.43;100.00;101036.38;6160924;23;20059;-74
2023/09/29 04:06:15;;;;;;;6.88;6.38;;;;;;;16.80;100.00;101089.41;6132491;23;20088;-73
2023/09/29 04:08:42;;;;;;;7.22;6.53;;;;;;;16.77;100.00;101088.75;6166437;23;20028;-74
2023/09/29 04:11:10;;;;;;;6.85;6.35;;;;;;;16.97;100.00;101098.78;6164971;23;20040;-74
2023/09/29 04:13:37;;;;;;;7.10;6.50;;;;;;;16.85;100.00;101071.38;6166591;23;20016;-73
2023/09/29 04:16:07;;;;;;;6.82;6.43;;;;;;;16.58;100.00;101028.28;6167429;23;20091;-74
2023/09/29 04:18:35;;;;;;;6.97;6.45;;;;;;;16.98;100.00;101079.28;6167449;23;20274;-74
2023/09/29 04:21:02;;;;;;;7.82;6.85;;;;;;;16.62;100.00;101019.16;6129339;23;20126;-75
2023/09/29 04:23:28;;;;;;;7.15;6.45;;;;;;;16.91;100.00;101065.63;6172761;23;20073;-74
2023/09/29 04:25:55;;;;;;;7.25;6.55;;;;;;;17.01;100.00;101064.97;6138351;23;20047;-74
2023/09/29 04:28:22;;;;;;;6.47;6.07;;;;;;;17.01;100.00;101055.19;6143714;23;20099;-73
2023/09/29 04:30:48;;;;;;;7.13;6.63;;;;;;;16.77;100.00;101006.59;6141424;23;20025;-73
2023/09/29 04:33:15;;;;;;;7.03;6.43;;;;;;;16.67;100.00;100980.75;6117256;23;20231;-73
2023/09/29 04:35:41;;;;;;;6.80;6.20;;;;;;;17.03;100.00;101047.97;6172824;23;20016;-74
2023/09/29 04:38:10;;;;;;;6.57;6.07;;;;;;;16.63;100.00;100979.28;6114857;23;20029;-73
2023/09/29 04:40:37;;;;;;;6.82;6.32;;;;;;;17.03;100.00;101047.13;6143208;23;20009;-73
2023/09/29 04:43:05;;;;;;;6.78;6.18;;;;;;;16.85;100.00;101036.06;6143210;23;20040;-73
2023/09/29 04:45:33;;;;;;;7.68;6.30;;;;;;;16.58;100.00;100975.28;6170891;23;20192;-73
2023/09/29 04:48:01;;;;;;;7.35;6.75;;;;;;;16.62;100.00;100974.97;6139000;23;20087;-73
2023/09/29 04:50:29;;;;;;;7.50;6.90;;;;;;;16.59;100.00;100980.47;6168328;23;20284;-74
2023/09/29 04:52:55;;;;;;;6.93;6.43;;;;;;;16.38;100.00;100951.13;6115386;23;20015;-73
2023/09/29 04:55:22;;;;;;;7.03;6.43;;;;;;;17.02;100.00;101062.19;6118163;23;20084;-74
2023/09/29 04:57:52;;;;;;;7.03;6.43;;;;;;;16.82;100.00;101042.44;6170533;23;20068;-74
2023/09/29 05:00:18;;;;;;;6.60;6.00;;;;;;;16.43;100.00;100966.66;6107889;23;20358;-73
2023/09/29 05:02:45;;;;;;;7.03;6.53;;;;;;;16.51;100.00;100986.31;6172833;23;20024;-73
2023/09/29 05:05:12;;;;;;;7.00;6.47;;;;;;;16.95;100.00;101055.63;6144145;23;21404;-74
2023/09/29 05:07:40;;;;;;;6.80;6.10;;;;;;;16.20;100.00;100955.09;6156143;23;20007;-72
2023/09/29 05:10:07;;;;;;;6.78;6.28;;;;;;;16.48;100.00;100985.72;6167885;23;20025;-73
2023/09/29 05:12:34;;;;;;;6.60;6.20;;;;;;;16.80;100.00;101033.72;6110280;23;20311;-73
2023/09/29 05:15:00;;;;;;;6.88;6.28;;;;;;;16.90;100.00;101042.72;6165263;23;20032;-73
2023/09/29 05:17:27;;;;;;;6.90;6.40;;;;;;;16.55;100.00;100984.31;6141780;23;20521;-73
2023/09/29 05:20:10;;;;;;;;;;;;;;;16.87;100.00;101042.94;6167311;23;20210;-73
2023/09/29 05:22:37;;;;;;;6.70;6.20;;;;;;;16.77;100.00;101036.59;6153583;23;19908;-73
2023/09/29 05:25:04;;;;;;;6.60;6.20;;;;;;;16.70;100.00;101022.13;6162711;23;20092;-73
2023/09/29 05:27:32;;;;;;;6.60;6.10;;;;;;;16.64;100.00;101014.63;6138458;23;21808;-73
2023/09/29 05:29:58;;;;;;;7.05;6.55;;;;;;;16.48;100.00;100988.38;6115553;23;20052;-73
2023/09/29 05:32:25;;;;;;;6.80;6.30;;;;;;;16.69;100.00;101017.75;6170862;23;20021;-73
2023/09/29 05:34:51;;;;;;;6.82;6.43;;;;;;;16.41;100.00;100971.22;6139146;23;20020;-73
2023/09/29 05:37:17;;;;;;;6.35;5.95;;;;;;;16.89;100.00;101045.50;6110760;23;20538;-74
2023/09/29 05:39:44;;;;;;;7.22;6.63;;;;;;;16.93;100.00;101047.78;6139084;23;20499;-71
2023/09/29 05:42:11;;;;;;;7.57;6.45;;;;;;;16.98;100.00;101051.91;6111916;23;20021;-71
2023/09/29 05:44:38;;;;;;;6.97;6.43;;;;;;;17.02;100.00;101056.91;6140930;23;20451;-71
2023/09/29 05:47:04;;;;;;;7.32;6.72;;;;;;;16.92;100.00;101021.41;6168538;23;20470;-71
2023/09/29 05:49:32;;;;;;;6.47;5.97;;;;;;;16.71;100.00;100979.56;6117633;23;20284;-71
2023/09/29 05:51:58;;;;;;;13.65;6.70;;;;;;;16.98;100.00;101010.34;6168193;23;20025;-70
2023/09/29 05:54:25;;;;;;;6.20;5.72;;;;;;;17.34;100.00;101046.53;6112397;23;20506;-73
2023/09/29 05:56:51;;;;;;;6.40;6.00;;;;;;;17.13;100.00;101003.06;6150781;23;20012;-73
2023/09/29 05:59:18;;;;;;;7.35;6.65;;;;;;;17.21;100.00;101005.97;6139066;23;20013;-72
2023/09/29 06:01:44;;;;;;;6.78;6.25;;;;;;;17.45;100.00;101036.91;6144104;23;20179;-71
2023/09/29 06:04:11;;;;;;;6.30;5.90;;;;;;;17.26;100.00;101001.19;6139700;23;20496;-74
2023/09/29 06:06:38;;;;;;;9.60;6.50;;;;;;;17.34;100.00;101008.56;6139135;23;20455;-70
2023/09/29 06:09:04;;;;;;;7.43;6.35;;;;;;;17.02;100.00;100929.63;6165934;23;20027;-69
2023/09/29 06:11:31;;;;;;;6.88;6.38;;;;;;;17.37;100.00;100995.03;6139835;23;20017;-73
2023/09/29 06:13:57;;;;;;;7.40;6.78;;;;;;;17.53;100.00;100998.22;6163870;23;20025;-71
2023/09/29 06:16:24;;;;;;;7.57;6.65;;;;;;;17.15;100.00;100929.53;6142205;23;20104;-70
2023/09/29 06:18:51;;;;;;;7.05;6.57;;;;;;;17.49;100.00;100978.19;6168511;23;20024;-69
2023/09/29 06:21:17;;;;;;;6.20;5.80;;;;;;;17.57;100.00;100990.03;6151203;23;20035;-71
2023/09/29 06:23:44;;;;;;;6.53;6.13;;;;;;;17.33;100.00;100953.78;6142510;23;20017;-71
2023/09/29 06:26:10;;;;;;;6.40;6.00;;;;;;;17.50;100.00;100982.53;6170490;23;20036;-72
2023/09/29 06:28:38;;;;;;;7.30;6.60;;;;;;;17.63;100.00;100993.03;6137581;23;20017;-72
2023/09/29 06:31:06;;;;;;;6.53;6.07;;;;;;;17.66;100.00;100991.97;6141631;23;20256;-71
2023/09/29 06:33:32;;;;;;;6.50;6.05;;;;;;;17.61;100.00;100980.88;6149529;23;20108;-70
2023/09/29 06:36:00;;;;;;;6.85;6.28;;;;;;;17.73;100.00;100998.50;6141486;23;20040;-70
2023/09/29 06:38:29;;;;;;;6.75;6.15;;;;;;;17.57;100.00;100969.63;6139863;23;20383;-71
2023/09/29 06:40:58;;;;;;;6.57;6.20;;;;;;;17.58;100.00;100958.06;6139122;23;20565;-70
2023/09/29 06:43:24;;;;;;;6.45;6.05;;;;;;;17.66;100.00;100952.13;6152750;23;20017;-70
2023/09/29 06:45:51;;;;;;;7.88;7.28;;;;;;;17.80;100.00;100943.09;6161591;23;20210;-70
2023/09/29 06:48:27;;;;;;;6.30;5.90;;;;;;;17.73;100.00;100918.84;6140918;23;20071;-70
2023/09/29 06:50:59;;;;;;;6.93;6.43;;;;;;;18.20;100.00;100985.97;6171214;23;20031;-71
2023/09/29 06:53:27;;;;;;;7.45;6.78;;;;;;;18.22;100.00;100953.97;6138491;23;20084;-71
2023/09/29 06:55:54;;;;;;;7.18;6.68;;;;;;;18.42;100.00;100965.63;6167188;23;20017;-71
2023/09/29 06:58:20;;;;;;;6.88;6.28;;;;;;;18.29;100.00;100926.78;6138390;23;20080;-72
2023/09/29 07:00:47;;;;;;;6.25;5.85;;;;;;;18.34;100.00;100906.00;6128608;23;20373;-71
2023/09/29 07:03:13;;;;;;;6.50;6.10;;;;;;;18.41;100.00;100882.41;6166729;23;20021;-71
2023/09/29 07:05:40;;;;;;;6.78;6.22;;;;;;;18.64;100.00;100900.94;6140532;23;20024;-72
2023/09/29 07:08:07;;;;;;;7.07;6.53;;;;;;;18.63;100.00;100851.41;6138532;23;20019;-71
2023/09/29 07:10:33;;;;;;;6.60;6.15;;;;;;;18.93;100.00;100870.13;6141344;23;20040;-70
2023/09/29 07:13:00;;;;;;;6.93;6.43;;;;;;;19.23;100.00;100875.63;6137521;23;20048;-72
2023/09/29 07:15:27;;;;;;;6.40;6.00;;;;;;;19.48;100.00;100875.19;6169313;23;20486;-71
2023/09/29 07:17:53;;;;;;;7.03;6.47;;;;;;;19.13;100.00;100812.56;6137591;23;20722;-70
2023/09/29 07:20:21;;;;;;;6.68;6.20;;;;;;;19.50;100.00;100854.59;6167101;23;20029;-70
2023/09/29 07:22:47;;;;;;;6.53;6.13;;;;;;;19.18;100.00;100827.28;6111191;23;20332;-71
2023/09/29 07:25:14;;;;;;;7.05;6.53;;;;;;;19.28;100.00;100842.31;6156414;23;20463;-72
2023/09/29 07:27:40;;;;;;;6.90;6.28;;;;;;;19.23;100.00;100854.34;6134267;23;20013;-71
2023/09/29 07:30:08;;;;;;;7.47;6.82;;;;;;;19.01;100.00;100824.25;6140996;23;20057;-71
2023/09/29 07:32:35;;;;;;;6.40;6.00;;;;;;;19.23;100.00;100862.31;6140957;23;20239;-71
2023/09/29 07:35:03;;;;;;;6.40;6.00;;;;;;;19.26;100.00;100854.06;6166865;23;20040;-72
2023/09/29 07:37:29;;;;;;;6.38;5.95;;;;;;;19.22;100.00;100844.66;6130742;23;20066;-72
2023/09/29 07:39:57;;;;;;;6.85;6.18;;;;;;;19.36;100.00;100841.63;6163083;23;20168;-71
2023/09/29 07:42:24;;;;;;;7.13;6.63;;;;;;;19.27;100.00;100794.56;6137054;23;20174;-71
2023/09/29 07:44:50;;;;;;;6.80;6.30;;;;;;;19.58;100.00;100824.63;6153448;23;20056;-71
2023/09/29 07:47:17;;;;;;;6.60;6.10;;;;;;;19.81;100.00;100830.63;6114606;23;20882;-72
2023/09/29 07:49:44;;;;;;;6.82;6.15;;;;;;;19.36;100.00;100716.56;6163829;23;20484;-71
2023/09/29 07:52:10;;;;;;;6.43;6.03;;;;;;;19.76;100.00;100752.94;6142605;23;20025;-72
2023/09/29 07:54:37;;;;;;;6.22;5.85;;;;;;;20.25;100.00;100799.13;6162268;23;20306;-71
2023/09/29 07:57:03;;;;;;;7.25;6.53;;;;;;;20.22;100.00;100726.59;6111455;23;20029;-72
2023/09/29 07:59:30;;;;;;;6.97;6.47;;;;;;;20.60;100.00;100738.22;6168406;23;20078;-72
2023/09/29 08:01:58;;;;;;;7.13;6.53;;;;;;;21.02;100.00;100756.47;6163704;23;20035;-72
2023/09/29 08:04:25;;;;;;;7.03;6.53;;;;;;;21.11;100.00;100723.56;6151761;23;20028;-72
2023/09/29 08:06:52;;;;;;;6.60;6.10;;;;;;;20.86;100.00;100664.56;6144322;23;20020;-72
2023/09/29 08:09:19;;;;;;;7.25;6.60;;;;;;;20.66;100.00;100670.97;6149101;23;20025;-72
2023/09/29 08:11:45;;;;;;;6.50;6.10;;;;;;;20.45;100.00;100645.34;6142969;23;20032;-72
2023/09/29 08:14:13;;;;;;;6.50;6.10;;;;;;;20.63;100.00;100700.59;6133356;23;20404;-72
2023/09/29 08:16:40;;;;;;;7.18;6.57;;;;;;;20.77;100.00;100733.94;6165679;23;20040;-72
2023/09/29 08:19:06;;;;;;;7.10;6.60;;;;;;;20.80;100.00;100741.66;6133052;23;20435;-71
2023/09/29 08:21:33;;;;;;;6.85;6.35;;;;;;;20.89;100.00;100738.97;6144082;23;20020;-74
2023/09/29 08:24:03;;;;;;;6.40;6.00;;;;;;;18.80;100.00;100379.41;6110829;23;20295;-71
2023/09/29 08:26:31;;;;;;;6.35;5.95;;;;;;;21.12;100.00;100743.91;6140464;23;20463;-71
2023/09/29 08:28:59;;;;;;;6.85;6.30;;;;;;;20.99;100.00;100682.91;6110538;23;20202;-71
2023/09/29 08:31:26;;;;;;;6.88;6.40;;;;;;;21.35;100.00;100712.34;6136275;23;20216;-72
2023/09/29 08:33:53;;;;;;;6.50;6.10;;;;;;;21.31;100.00;100713.63;6137363;23;20017;-71
2023/09/29 08:36:19;;;;;;;6.57;6.15;;;;;;;21.35;100.00;100704.34;6137280;23;20052;-72
2023/09/29 08:38:46;;;;;;;6.93;6.45;;;;;;;21.21;100.00;100704.81;6164140;23;20042;-72
2023/09/29 08:41:14;;;;;;;6.63;6.22;;;;;;;21.40;100.00;100706.53;6139684;23;20430;-71
2023/09/29 08:43:43;;;;;;;7.07;6.53;;;;;;;21.05;100.00;100644.13;6160433;23;20013;-72
2023/09/29 08:46:25;;;;;;;7.07;6.47;;;;;;;21.66;100.00;100714.69;6154619;23;20158;-70
2023/09/29 08:48:54;;;;;;;7.10;6.60;;;;;;;21.68;100.00;100673.47;6161880;23;20029;-72
2023/09/29 08:51:22;;;;;;;6.50;6.00;;;;;;;21.96;99.74;100640.47;6142643;23;20013;-72
2023/09/29 08:53:52;;;;;;;6.63;6.22;;;;;;;22.36;96.85;100652.47;6165362;23;20036;-72
2023/09/29 08:56:19;;;;;;;7.28;6.78;;;;;;;22.32;96.39;100633.22;6144429;23;20384;-72
2023/09/29 08:58:46;;;;;;;7.30;6.80;;;;;;;22.71;94.69;100656.81;6138632;23;20052;-73
2023/09/29 09:01:13;;;;;;;8.15;7.45;;;;;;;22.72;94.15;100634.44;6165007;23;20483;-72
2023/09/29 09:03:40;;;;;;;7.30;6.47;;;;;;;22.58;91.73;100555.63;6136182;23;20031;-71
2023/09/29 09:06:33;;;;;;;6.93;6.43;;;;;;;23.13;91.58;100628.41;6165957;23;20295;-72
2023/09/29 09:09:00;;;;;;;6.25;5.75;;;;;;;23.17;90.57;100605.66;6126910;23;20031;-72
2023/09/29 09:11:28;;;;;;;6.40;6.00;;;;;;;23.68;89.66;100646.56;6167032;23;20038;-71
2023/09/29 09:13:59;;;;;;;7.25;6.55;;;;;;;24.01;87.04;100609.06;6142757;23;20041;-72
2023/09/29 09:16:27;;;;;;;6.30;5.90;;;;;;;23.73;82.04;100475.41;6144231;23;20072;-71
2023/09/29 09:18:53;;;;;;;6.47;6.03;;;;;;;23.60;80.75;100477.78;6141004;23;20177;-70
2023/09/29 09:21:31;;;;;;;6.60;6.10;;;;;;;23.03;76.62;100347.50;6170262;23;20027;-71
2023/09/29 09:23:58;;;;;;;6.20;5.90;;;;;;;23.20;77.50;100425.97;6142001;23;20494;-72
2023/09/29 09:26:28;;;;;;;6.28;5.88;;;;;;;23.27;78.79;100504.59;6149590;23;20044;-72
2023/09/29 09:28:54;;;;;;;6.88;6.30;;;;;;;22.70;80.31;100475.91;6170243;23;20533;-72
2023/09/29 09:31:21;;;;;;;6.55;6.15;;;;;;;22.90;80.12;100525.44;6170558;23;20146;-71
2023/09/29 09:33:49;;;;;;;6.43;6.00;;;;;;;22.95;80.64;100562.41;6142466;23;20013;-71
2023/09/29 09:36:16;;;;;;;6.45;6.05;;;;;;;22.47;80.41;100514.00;6169298;23;20024;-71
2023/09/29 09:38:43;;;;;;;6.50;6.00;;;;;;;22.36;80.11;100526.81;6137719;23;20043;-72
2023/09/29 09:41:10;;;;;;;6.47;6.07;;;;;;;22.11;80.53;100524.00;6139403;23;20458;-70
2023/09/29 09:43:38;;;;;;;6.25;5.85;;;;;;;22.07;81.71;100563.56;6151408;23;20106;-71
2023/09/29 09:46:12;;;;;;;6.80;6.40;;;;;;;22.06;82.01;100583.25;6142281;23;20056;-72
2023/09/29 09:48:55;;;;;;;6.18;5.68;;;;;;;22.06;81.60;100588.59;6171954;23;20075;-72
2023/09/29 09:51:33;;;;;;;6.40;6.00;;;;;;;21.91;81.13;100583.00;6140601;23;20526;-72
2023/09/29 09:54:03;;;;;;;6.25;5.70;;;;;;;22.08;80.74;100615.19;6169188;23;20376;-73
2023/09/29 09:56:41;;;;;;;6.47;5.97;;;;;;;22.02;81.08;100619.31;6166519;23;20015;-71
2023/09/29 09:59:08;;;;;;;6.10;5.80;;;;;;;22.14;79.42;100586.97;6114292;23;20013;-71
2023/09/29 10:01:34;;;;;;;5.90;5.60;;;;;;;22.21;81.73;100644.16;6168958;23;20019;-71
2023/09/29 10:04:06;;;;;;;6.20;5.72;;;;;;;22.40;81.55;100659.19;6142726;23;20025;-72
2023/09/29 10:06:37;;;;;;;6.03;5.63;;;;;;;21.78;76.36;100435.66;6167090;23;20279;-71
2023/09/29 10:09:08;;;;;;;6.70;6.00;;;;;;;22.22;76.92;100553.09;6142195;23;20506;-71
2023/09/29 10:11:34;;;;;;;6.05;5.63;;;;;;;22.33;78.20;100594.81;6141587;23;20070;-72
2023/09/29 10:14:03;;;;;;;6.43;5.80;;;;;;;22.19;77.35;100574.81;6171132;23;20008;-72
2023/09/29 10:16:31;;;;;;;6.10;5.60;;;;;;;22.18;77.50;100583.00;6136441;23;20096;-72
2023/09/29 10:19:00;;;;;;;6.30;5.80;;;;;;;22.39;75.65;100561.22;6170177;23;20686;-72
2023/09/29 10:21:33;;;;;;;6.70;6.15;;;;;;;21.82;74.73;100434.31;6166870;23;20098;-72
2023/09/29 10:24:05;;;;;;;6.18;5.75;;;;;;;22.99;73.60;100571.81;6132721;23;20022;-72
2023/09/29 10:26:47;;;;;;;9.32;6.30;;;;;;;23.09;70.54;100469.94;6165808;23;20526;-71
2023/09/29 10:29:24;;;;;;;6.50;5.93;;;;;;;23.21;68.66;100449.03;6136972;23;20372;-72
2023/09/29 10:31:56;;;;;;;7.15;6.35;;;;;;;23.16;69.15;100496.91;6166148;23;20020;-72
2023/09/29 10:34:24;;;;;;;7.63;6.03;;;;;;;23.39;70.50;100582.75;6138401;23;20046;-74
2023/09/29 10:36:56;;;;;;;8.57;6.28;;;;;;;23.69;70.61;100611.59;6161868;23;20104;-71
2023/09/29 10:39:29;;;;;;;8.35;6.53;;;;;;;23.82;70.03;100615.63;6141490;23;20021;-73
2023/09/29 10:42:13;;;;;;;7.95;6.35;;;;;;;23.75;69.42;100583.25;6171097;23;20050;-72
2023/09/29 10:44:44;;;;;;;7.43;6.20;;;;;;;23.24;69.21;100531.72;6170673;23;20054;-73
2023/09/29 10:47:16;;;;;;;7.10;5.90;;;;;;;23.64;68.37;100556.81;6137698;23;20032;-71
2023/09/29 10:49:47;;;;;;;5.97;5.68;;;;;;;23.54;68.09;100554.31;6138397;23;20477;-71
2023/09/29 10:52:19;;;;;;;7.15;6.45;;;;;;;23.45;68.91;100566.00;6169915;23;20130;-71
2023/09/29 10:54:45;;;;;;;8.65;6.93;;;;;;;23.82;69.48;100627.16;6170201;23;20043;-71
2023/09/29 10:57:18;;;;;;;8.20;7.45;;;;;;;22.98;66.42;100414.06;6135717;23;20031;-73
2023/09/29 10:59:48;;;;;;;7.35;6.40;;;;;;;23.39;67.32;100526.50;6146358;23;20502;-72
2023/09/29 11:02:16;;;;;;;6.82;6.25;;;;;;;23.56;67.48;100556.81;6142964;23;20040;-73
2023/09/29 11:04:46;;;;;;;7.45;6.75;;;;;;;23.25;67.38;100534.22;6149245;23;20087;-73
2023/09/29 11:07:15;;;;;;;6.72;6.20;;;;;;;23.06;68.46;100562.13;6165965;23;20118;-72
2023/09/29 11:09:41;;;;;;;7.72;6.47;;;;;;;23.47;67.78;100618.44;6161832;23;20025;-73
2023/09/29 11:12:17;;;;;;;6.55;6.00;;;;;;;23.16;68.82;100596.78;6168687;23;20157;-71
2023/09/29 11:14:43;;;;;;;6.53;6.13;;;;;;;23.17;68.01;100569.00;6170328;23;20086;-71
2023/09/29 11:17:13;;;;;;;6.78;6.25;;;;;;;23.56;69.16;100680.06;6116964;23;20482;-71
2023/09/29 11:19:50;;;;;;;6.82;6.20;;;;;;;23.28;68.88;100605.34;6168110;23;20020;-71
2023/09/29 11:22:18;;;;;;;7.40;6.70;;;;;;;23.27;69.12;100617.91;6141656;23;20430;-74
2023/09/29 11:24:48;;;;;;;7.35;6.63;;;;;;;23.47;70.02;100669.34;6141519;23;20345;-71